Time;durP1;ratioP1;P1;durP2;ratioP2;P2;SDS_P1;SDS_P2;PMS_P1;PMS_P2;Temp;Humidity;BMP_temperature;BMP_pressure;BME280_temperature;BME280_humidity;BME280_pressure;Samples;Min_cycle;Max_cycle;Signal;HPM_P1;HPM_P2
2021/12/02 00:01:07;;;;;;;3.40;1.53;;;;;;;;;;5055641;28;20449;-71
2021/12/02 00:03:35;;;;;;;4.17;1.00;;;;;;;;;;5057265;28;20544;-71
2021/12/02 00:06:02;;;;;;;3.03;1.50;;;;;;;;;;5057376;28;21099;-71
2021/12/02 00:08:29;;;;;;;9.40;2.17;;;;;;;;;;5057258;28;20544;-72
2021/12/02 00:10:56;;;;;;;2.73;1.60;;;;;;;;;;5056162;28;20774;-71
2021/12/02 00:13:26;;;;;;;2.00;0.60;;;;;;;;;;5056098;28;20889;-72
2021/12/02 00:15:56;;;;;;;10.80;1.43;;;;;;;;;;5056896;28;21081;-72
2021/12/02 00:21:03;;;;;;;3.00;1.37;;;;;;;;;;5056880;28;20491;-72
2021/12/02 00:21:21;;;;;;;6.47;3.03;;;;;;;;;;5057416;28;20477;-72
2021/12/02 00:23:52;;;;;;;2.40;0.87;;;;;;;;;;5056852;28;20493;-71
2021/12/02 00:26:22;;;;;;;2.17;1.60;;;;;;;;;;5056218;28;20485;-71
2021/12/02 00:28:53;;;;;;;3.60;1.53;;;;;;;;;;5055123;28;20434;-71
2021/12/02 00:31:20;;;;;;;1.93;1.23;;;;;;;;;;5055060;28;20549;-72
2021/12/02 00:33:48;;;;;;;2.43;1.13;;;;;;;;;;5055408;28;20544;-71
2021/12/02 00:36:16;;;;;;;4.10;1.90;;;;;;;;;;5055038;28;20496;-71
2021/12/02 00:38:44;;;;;;;1.67;1.27;;;;;;;;;;5056682;28;20882;-71
2021/12/02 00:41:11;;;;;;;3.00;2.20;;;;;;;;;;5056419;28;20715;-71
2021/12/02 00:43:39;;;;;;;7.90;1.33;;;;;;;;;;5056622;28;20457;-71
2021/12/02 00:46:08;;;;;;;1.40;1.00;;;;;;;;;;5057096;28;20489;-71
2021/12/02 00:48:36;;;;;;;7.23;3.07;;;;;;;;;;5056279;28;20457;-71
2021/12/02 00:51:04;;;;;;;2.90;1.10;;;;;;;;;;5056401;28;20507;-72
2021/12/02 00:53:32;;;;;;;3.77;1.63;;;;;;;;;;5056820;28;20528;-72
2021/12/02 00:56:02;;;;;;;2.60;1.43;;;;;;;;;;5056960;28;20610;-71
2021/12/02 00:58:30;;;;;;;4.93;1.33;;;;;;;;;;5056847;28;20823;-70
2021/12/02 01:00:58;;;;;;;3.77;1.90;;;;;;;;;;5056945;28;20460;-71
2021/12/02 01:03:28;;;;;;;1.83;1.10;;;;;;;;;;5057738;28;20472;-72
2021/12/02 01:05:55;;;;;;;3.13;1.27;;;;;;;;;;5056243;28;20489;-72
2021/12/02 01:08:22;;;;;;;2.47;0.90;;;;;;;;;;5056784;28;20893;-72
2021/12/02 01:10:49;;;;;;;4.53;1.80;;;;;;;;;;5056575;28;20450;-71
2021/12/02 01:13:17;;;;;;;5.83;1.37;;;;;;;;;;5060185;28;20944;-71
2021/12/02 01:15:44;;;;;;;2.10;1.43;;;;;;;;;;5060535;28;20457;-71
2021/12/02 01:18:11;;;;;;;4.13;2.93;;;;;;;;;;5060474;28;20525;-70
2021/12/02 01:20:39;;;;;;;1.10;0.60;;;;;;;;;;5061526;28;20611;-72
2021/12/02 01:23:08;;;;;;;1.27;0.73;;;;;;;;;;5061861;28;20777;-71
2021/12/02 01:25:36;;;;;;;1.20;0.60;;;;;;;;;;5060615;28;20455;-71
2021/12/02 01:28:02;;;;;;;10.20;9.27;;;;;;;;;;5061002;28;20468;-72
2021/12/02 01:30:30;;;;;;;1.37;0.80;;;;;;;;;;5060855;28;20480;-71
2021/12/02 01:33:00;;;;;;;2.17;1.33;;;;;;;;;;5060984;28;20481;-71
2021/12/02 01:35:28;;;;;;;1.50;0.93;;;;;;;;;;5061194;28;20453;-71
2021/12/02 01:37:56;;;;;;;5.07;1.57;;;;;;;;;;5060560;28;20472;-73
2021/12/02 01:40:23;;;;;;;2.40;1.50;;;;;;;;;;5060926;28;20445;-71
2021/12/02 01:42:53;;;;;;;4.07;2.10;;;;;;;;;;5060822;28;20591;-72
2021/12/02 01:45:21;;;;;;;2.50;1.37;;;;;;;;;;5061681;28;20446;-72
2021/12/02 01:47:53;;;;;;;11.57;10.60;;;;;;;;;;5060608;28;21006;-71
2021/12/02 01:50:22;;;;;;;3.83;1.00;;;;;;;;;;5060823;28;20458;-71
2021/12/02 01:52:50;;;;;;;4.63;1.30;;;;;;;;;;5061057;28;20475;-71
2021/12/02 01:55:18;;;;;;;8.23;2.63;;;;;;;;;;5061023;28;20539;-72
2021/12/02 01:57:48;;;;;;;3.40;0.90;;;;;;;;;;5060547;28;20493;-71
2021/12/02 02:00:18;;;;;;;4.60;1.77;;;;;;;;;;5061395;28;20465;-71
2021/12/02 02:02:46;;;;;;;6.30;0.80;;;;;;;;;;5060954;28;20476;-71
2021/12/02 02:05:17;;;;;;;2.67;1.70;;;;;;;;;;5061330;28;20464;-71
2021/12/02 02:07:50;;;;;;;2.20;1.70;;;;;;;;;;5060864;28;20937;-71
2021/12/02 02:10:18;;;;;;;2.40;1.47;;;;;;;;;;5060735;28;20440;-72
2021/12/02 02:12:45;;;;;;;2.13;1.63;;;;;;;;;;5060561;28;20449;-71
2021/12/02 02:15:12;;;;;;;3.47;2.10;;;;;;;;;;5059896;28;20480;-72
2021/12/02 02:17:45;;;;;;;4.00;1.10;;;;;;;;;;5060484;28;20449;-72
2021/12/02 02:20:14;;;;;;;2.30;1.20;;;;;;;;;;5059062;28;20868;-72
2021/12/02 02:22:42;;;;;;;4.17;1.77;;;;;;;;;;5058875;28;20535;-71
2021/12/02 02:25:13;;;;;;;4.20;1.60;;;;;;;;;;5059007;28;20485;-71
2021/12/02 02:27:40;;;;;;;5.43;3.70;;;;;;;;;;5058724;28;20568;-72
2021/12/02 02:30:09;;;;;;;2.93;1.47;;;;;;;;;;5058601;28;20453;-72
2021/12/02 02:32:37;;;;;;;2.60;1.30;;;;;;;;;;5059037;28;20454;-72
2021/12/02 02:35:05;;;;;;;1.67;1.50;;;;;;;;;;5059005;28;20449;-72
2021/12/02 02:37:36;;;;;;;2.07;1.87;;;;;;;;;;5059106;28;20489;-72
2021/12/02 02:40:06;;;;;;;1.10;0.60;;;;;;;;;;5058189;28;20527;-72
2021/12/02 02:42:33;;;;;;;1.40;1.07;;;;;;;;;;5058576;28;20541;-73
2021/12/02 02:45:01;;;;;;;1.37;0.93;;;;;;;;;;5059261;28;20733;-72
2021/12/02 02:47:28;;;;;;;5.33;2.00;;;;;;;;;;5058262;28;20552;-72
2021/12/02 02:49:55;;;;;;;2.40;2.20;;;;;;;;;;5058669;28;20454;-72
2021/12/02 02:52:23;;;;;;;2.17;1.13;;;;;;;;;;5058928;28;20552;-71
2021/12/02 02:54:50;;;;;;;1.40;0.90;;;;;;;;;;5058674;28;20906;-72
2021/12/02 02:57:21;;;;;;;2.07;1.87;;;;;;;;;;5059556;28;20534;-71
2021/12/02 03:02:38;;;;;;;2.13;1.23;;;;;;;;;;5057564;28;20448;-71
2021/12/02 03:05:17;;;;;;;2.60;1.03;;;;;;;;;;5058794;28;20449;-71
2021/12/02 03:07:47;;;;;;;1.10;0.50;;;;;;;;;;5057944;28;20889;-71
2021/12/02 03:10:17;;;;;;;3.80;2.53;;;;;;;;;;5058050;28;20456;-72
2021/12/02 03:12:54;;;;;;;3.50;1.60;;;;;;;;;;5058143;28;20468;-71
2021/12/02 03:18:07;;;;;;;1.30;1.10;;;;;;;;;;5057659;28;20795;-71
2021/12/02 03:20:34;;;;;;;2.33;0.90;;;;;;;;;;5057539;28;20536;-72
2021/12/02 03:23:01;;;;;;;1.70;1.00;;;;;;;;;;5056904;28;20457;-72
2021/12/02 03:25:28;;;;;;;2.50;1.23;;;;;;;;;;5057150;28;20540;-71
2021/12/02 03:27:56;;;;;;;1.10;0.60;;;;;;;;;;5057080;28;20536;-71
2021/12/02 03:30:23;;;;;;;3.23;1.03;;;;;;;;;;5056705;28;20501;-71
2021/12/02 03:32:50;;;;;;;1.77;1.30;;;;;;;;;;5058534;28;20511;-71
2021/12/02 03:35:17;;;;;;;2.07;1.00;;;;;;;;;;5057041;28;20452;-71
2021/12/02 03:37:44;;;;;;;4.30;1.13;;;;;;;;;;5057492;28;20810;-71
2021/12/02 03:40:17;;;;;;;1.40;1.10;;;;;;;;;;5057753;28;20442;-71
2021/12/02 03:42:45;;;;;;;2.17;1.20;;;;;;;;;;5057725;28;20785;-71
2021/12/02 03:45:13;;;;;;;5.10;1.50;;;;;;;;;;5057487;28;20868;-72
2021/12/02 03:47:40;;;;;;;5.13;2.43;;;;;;;;;;5056602;28;20497;-72
2021/12/02 03:50:08;;;;;;;1.67;0.87;;;;;;;;;;5056686;28;20454;-71
2021/12/02 03:52:38;;;;;;;5.43;1.37;;;;;;;;;;5056801;28;20469;-71
2021/12/02 03:55:08;;;;;;;2.77;1.67;;;;;;;;;;5056888;28;20450;-72
2021/12/02 03:57:38;;;;;;;1.87;1.27;;;;;;;;;;5056280;28;20555;-71
2021/12/02 04:00:06;;;;;;;2.90;1.37;;;;;;;;;;5056715;28;20536;-72
2021/12/02 04:02:33;;;;;;;1.43;1.17;;;;;;;;;;5057380;28;20477;-72
2021/12/02 04:05:01;;;;;;;3.17;0.90;;;;;;;;;;5056855;28;20721;-71
2021/12/02 04:07:28;;;;;;;1.70;1.23;;;;;;;;;;5055974;28;20485;-71
2021/12/02 04:09:55;;;;;;;1.70;1.40;;;;;;;;;;5056859;28;20552;-72
2021/12/02 04:12:29;;;;;;;1.83;1.27;;;;;;;;;;5056154;28;20461;-71
2021/12/02 04:15:00;;;;;;;2.23;1.23;;;;;;;;;;5056168;28;20450;-71
2021/12/02 04:17:40;;;;;;;2.07;1.73;;;;;;;;;;5059429;28;20496;-72
2021/12/02 04:20:15;;;;;;;5.90;5.43;;;;;;;;;;5056880;28;20449;-71
2021/12/02 04:22:42;;;;;;;1.43;1.33;;;;;;;;;;5057713;28;20472;-71
2021/12/02 04:25:10;;;;;;;18.60;17.37;;;;;;;;;;5057621;28;20547;-71
2021/12/02 04:27:37;;;;;;;8.47;7.97;;;;;;;;;;5056294;28;20488;-71
2021/12/02 04:30:06;;;;;;;3.80;3.60;;;;;;;;;;5057213;28;20786;-72
2021/12/02 04:32:33;;;;;;;5.83;5.23;;;;;;;;;;5059477;28;20465;-71
2021/12/02 04:35:00;;;;;;;3.77;3.47;;;;;;;;;;5077468;28;20565;-72
2021/12/02 04:37:29;;;;;;;1.97;1.13;;;;;;;;;;5077449;28;20468;-72
2021/12/02 04:39:56;;;;;;;4.60;4.37;;;;;;;;;;5075175;28;20467;-71
2021/12/02 04:42:23;;;;;;;2.30;2.10;;;;;;;;;;5076824;28;20895;-72
2021/12/02 04:44:50;;;;;;;2.90;2.70;;;;;;;;;;5076227;28;20493;-72
2021/12/02 04:47:17;;;;;;;6.37;6.07;;;;;;;;;;5073934;28;20938;-71
2021/12/02 04:49:45;;;;;;;4.53;4.20;;;;;;;;;;5077209;28;20472;-72
2021/12/02 04:52:12;;;;;;;9.20;8.80;;;;;;;;;;5075797;28;20724;-71
2021/12/02 04:54:39;;;;;;;8.27;7.87;;;;;;;;;;5076782;28;20535;-71
2021/12/02 04:57:07;;;;;;;27.37;24.60;;;;;;;;;;5076231;28;20465;-72
2021/12/02 04:59:34;;;;;;;9.27;8.73;;;;;;;;;;5075522;28;20453;-72
2021/12/02 05:02:01;;;;;;;13.23;12.43;;;;;;;;;;5075466;28;20849;-72
2021/12/02 05:04:28;;;;;;;25.50;23.17;;;;;;;;;;5075055;28;20456;-72
2021/12/02 05:06:55;;;;;;;10.67;8.30;;;;;;;;;;5075243;28;20602;-71
2021/12/02 05:09:22;;;;;;;13.97;13.07;;;;;;;;;;5074660;28;20571;-71
2021/12/02 05:11:50;;;;;;;4.70;4.47;;;;;;;;;;5075406;28;20513;-71
2021/12/02 05:14:23;;;;;;;5.00;4.67;;;;;;;;;;5075405;28;20461;-71
2021/12/02 05:16:53;;;;;;;4.60;4.40;;;;;;;;;;5075411;28;20490;-72
2021/12/02 05:19:20;;;;;;;3.93;3.47;;;;;;;;;;5075174;28;20509;-71
2021/12/02 05:21:47;;;;;;;2.67;2.47;;;;;;;;;;5075352;28;20460;-72
2021/12/02 05:24:14;;;;;;;8.93;8.53;;;;;;;;;;5074744;28;20814;-71
2021/12/02 05:26:41;;;;;;;9.17;8.77;;;;;;;;;;5075491;28;20492;-72
2021/12/02 05:29:09;;;;;;;6.43;6.13;;;;;;;;;;5075095;28;20455;-71
2021/12/02 05:31:36;;;;;;;13.60;12.80;;;;;;;;;;5076286;28;20461;-73
2021/12/02 05:34:03;;;;;;;13.57;12.77;;;;;;;;;;5075448;28;20448;-72
2021/12/02 05:36:33;;;;;;;18.70;17.40;;;;;;;;;;5075591;28;21011;-72
2021/12/02 05:39:00;;;;;;;40.90;36.30;;;;;;;;;;5075655;28;20457;-72
2021/12/02 05:41:28;;;;;;;22.23;20.17;;;;;;;;;;5075776;28;20452;-72
2021/12/02 05:43:55;;;;;;;10.53;9.97;;;;;;;;;;5075755;28;20455;-72
2021/12/02 05:46:26;;;;;;;16.63;15.53;;;;;;;;;;5074076;28;20900;-72
2021/12/02 05:49:03;;;;;;;13.00;11.83;;;;;;;;;;5074595;28;20456;-71
2021/12/02 05:51:30;;;;;;;17.20;15.90;;;;;;;;;;5074444;28;20522;-71
2021/12/02 05:54:00;;;;;;;19.87;17.90;;;;;;;;;;5075003;28;20453;-72
2021/12/02 05:56:27;;;;;;;15.87;14.40;;;;;;;;;;5074265;28;20467;-72
2021/12/02 05:58:57;;;;;;;44.83;39.33;;;;;;;;;;5077166;28;20486;-71
2021/12/02 06:01:25;;;;;;;19.70;18.13;;;;;;;;;;5077207;28;20456;-71
2021/12/02 06:03:52;;;;;;;19.07;17.47;;;;;;;;;;5078233;28;20536;-71
2021/12/02 06:06:23;;;;;;;16.67;15.67;;;;;;;;;;5077927;28;20490;-72
2021/12/02 06:08:54;;;;;;;17.10;15.93;;;;;;;;;;5078046;28;20455;-71
2021/12/02 06:11:23;;;;;;;6.50;6.20;;;;;;;;;;5074693;28;20463;-72
2021/12/02 06:13:50;;;;;;;7.00;6.60;;;;;;;;;;5065099;28;20445;-72
2021/12/02 06:16:17;;;;;;;13.07;12.17;;;;;;;;;;5055701;28;20491;-72
2021/12/02 06:18:47;;;;;;;16.23;15.13;;;;;;;;;;5064743;28;20543;-71
2021/12/02 06:21:14;;;;;;;23.70;22.00;;;;;;;;;;5077829;28;20804;-71
2021/12/02 06:23:42;;;;;;;18.37;17.07;;;;;;;;;;5075566;28;20871;-71
2021/12/02 06:26:09;;;;;;;20.27;18.80;;;;;;;;;;5075551;28;20448;-71
2021/12/02 06:28:37;;;;;;;22.23;20.33;;;;;;;;;;5075765;28;20448;-72
2021/12/02 06:31:06;;;;;;;20.37;18.63;;;;;;;;;;5074413;28;20522;-71
2021/12/02 06:33:33;;;;;;;24.37;21.63;;;;;;;;;;5075692;28;20444;-71
2021/12/02 06:39:06;;;;;;;13.73;12.70;;;;;;;;;;5073682;28;20429;-71
2021/12/02 06:41:34;;;;;;;7.53;7.10;;;;;;;;;;5075476;28;20951;-71
2021/12/02 06:44:01;;;;;;;7.47;6.83;;;;;;;;;;5076059;28;20479;-71
2021/12/02 06:46:29;;;;;;;7.80;7.33;;;;;;;;;;5076403;28;20487;-72
2021/12/02 06:49:07;;;;;;;10.40;9.70;;;;;;;;;;5075004;28;20460;-71
2021/12/02 06:51:38;;;;;;;6.43;5.93;;;;;;;;;;5074963;28;20455;-72
2021/12/02 06:54:14;;;;;;;11.80;7.50;;;;;;;;;;5066723;28;20452;-72
2021/12/02 06:56:43;;;;;;;6.00;5.50;;;;;;;;;;5055813;28;20578;-71
2021/12/02 06:59:11;;;;;;;10.83;10.20;;;;;;;;;;5056590;28;20794;-70
2021/12/02 07:01:39;;;;;;;10.20;7.50;;;;;;;;;;5055410;28;20556;-71
2021/12/02 07:04:09;;;;;;;9.03;7.90;;;;;;;;;;5056762;28;20457;-71
2021/12/02 07:06:38;;;;;;;8.70;8.20;;;;;;;;;;5057100;28;20555;-71
2021/12/02 07:09:06;;;;;;;9.33;8.43;;;;;;;;;;5057034;28;20781;-72
2021/12/02 07:11:34;;;;;;;63.17;36.40;;;;;;;;;;5056917;28;20899;-71
2021/12/02 07:14:03;;;;;;;9.40;6.50;;;;;;;;;;5056685;28;20869;-70
2021/12/02 07:16:33;;;;;;;8.50;7.90;;;;;;;;;;5057767;28;20547;-71
2021/12/02 07:19:01;;;;;;;8.33;7.93;;;;;;;;;;5072784;28;20452;-71
2021/12/02 07:21:28;;;;;;;14.33;13.53;;;;;;;;;;5076745;28;20448;-74
2021/12/02 07:23:55;;;;;;;25.10;23.27;;;;;;;;;;5074111;28;20449;-71
2021/12/02 07:26:25;;;;;;;18.23;17.03;;;;;;;;;;5074289;28;20452;-71
2021/12/02 07:28:54;;;;;;;19.83;16.00;;;;;;;;;;5074084;28;20452;-72
2021/12/02 07:31:23;;;;;;;34.43;29.93;;;;;;;;;;5074122;28;20637;-71
2021/12/02 07:33:53;;;;;;;20.30;18.67;;;;;;;;;;5076537;28;20805;-72
2021/12/02 07:36:21;;;;;;;31.50;26.83;;;;;;;;;;5077711;28;20509;-72
2021/12/02 07:38:49;;;;;;;23.70;21.63;;;;;;;;;;5075481;28;20467;-71
2021/12/02 07:41:16;;;;;;;29.90;26.70;;;;;;;;;;5059847;28;20460;-72
2021/12/02 07:43:51;;;;;;;28.87;25.77;;;;;;;;;;5070360;28;20481;-71
2021/12/02 07:46:28;;;;;;;92.13;43.10;;;;;;;;;;5076584;28;20448;-72
2021/12/02 07:48:57;;;;;;;37.67;30.30;;;;;;;;;;5076130;28;20452;-71
2021/12/02 07:51:28;;;;;;;62.30;34.00;;;;;;;;;;5064291;28;20449;-71
2021/12/02 07:53:58;;;;;;;60.53;40.03;;;;;;;;;;5067026;28;20457;-72
2021/12/02 07:56:27;;;;;;;51.72;34.83;;;;;;;;;;5069175;28;21078;-72
2021/12/02 07:58:55;;;;;;;55.67;38.53;;;;;;;;;;5055721;28;20380;-71
2021/12/02 08:01:23;;;;;;;156.77;50.97;;;;;;;;;;5068146;28;21061;-71
2021/12/02 08:03:51;;;;;;;114.60;48.00;;;;;;;;;;5071481;28;20523;-72
2021/12/02 08:06:19;;;;;;;23.93;22.20;;;;;;;;;;5068543;28;20454;-71
2021/12/02 08:08:47;;;;;;;23.73;21.63;;;;;;;;;;5075104;28;20476;-71
2021/12/02 08:11:14;;;;;;;32.03;26.80;;;;;;;;;;5069356;28;20461;-71
2021/12/02 08:13:44;;;;;;;13.10;12.27;;;;;;;;;;5055105;28;20893;-72
2021/12/02 08:16:14;;;;;;;19.83;18.00;;;;;;;;;;5062112;28;20505;-71
2021/12/02 08:18:42;;;;;;;22.33;20.67;;;;;;;;;;5072667;28;20453;-72
2021/12/02 08:21:10;;;;;;;28.70;26.60;;;;;;;;;;5062164;28;20473;-71
2021/12/02 08:23:40;;;;;;;32.40;28.60;;;;;;;;;;5072231;28;20449;-72
2021/12/02 08:26:12;;;;;;;92.93;45.87;;;;;;;;;;5074545;28;20464;-71
2021/12/02 08:28:39;;;;;;;124.68;53.80;;;;;;;;;;5074721;28;20524;-71
2021/12/02 08:31:09;;;;;;;186.50;62.50;;;;;;;;;;5074048;28;20284;-71
2021/12/02 08:33:37;;;;;;;268.45;90.50;;;;;;;;;;5074148;28;20722;-71
2021/12/02 08:36:09;;;;;;;188.90;57.10;;;;;;;;;;5074222;28;20588;-72
2021/12/02 08:38:37;;;;;;;41.77;22.77;;;;;;;;;;5072214;28;20488;-72
2021/12/02 08:41:05;;;;;;;23.93;20.50;;;;;;;;;;5074690;28;20549;-72
2021/12/02 08:43:32;;;;;;;10.53;9.30;;;;;;;;;;5074963;28;20452;-71
2021/12/02 08:45:59;;;;;;;10.97;9.50;;;;;;;;;;5075510;28;20452;-71
2021/12/02 08:48:27;;;;;;;11.17;7.60;;;;;;;;;;5074485;28;20561;-71
2021/12/02 08:50:54;;;;;;;10.20;8.73;;;;;;;;;;5058611;28;20962;-70
2021/12/02 08:53:22;;;;;;;7.93;7.33;;;;;;;;;;5074468;28;20493;-70
2021/12/02 08:55:50;;;;;;;11.37;8.00;;;;;;;;;;5074011;28;20865;-70
2021/12/02 08:58:18;;;;;;;13.70;12.90;;;;;;;;;;5074970;28;20462;-70
2021/12/02 09:00:46;;;;;;;7.73;7.03;;;;;;;;;;5074389;28;20453;-70
2021/12/02 09:03:16;;;;;;;9.60;8.83;;;;;;;;;;5069510;28;20463;-70
2021/12/02 09:05:46;;;;;;;13.10;12.10;;;;;;;;;;5073952;28;20522;-71
2021/12/02 09:08:19;;;;;;;19.70;18.40;;;;;;;;;;5073935;28;21025;-70
2021/12/02 09:10:47;;;;;;;43.70;34.07;;;;;;;;;;5063852;28;20461;-70
2021/12/02 09:13:16;;;;;;;47.57;32.50;;;;;;;;;;5072586;28;20456;-70
2021/12/02 09:15:43;;;;;;;28.43;25.40;;;;;;;;;;5075532;28;20464;-69
2021/12/02 09:18:11;;;;;;;16.60;15.10;;;;;;;;;;5062716;28;20465;-70
2021/12/02 09:20:39;;;;;;;34.07;30.17;;;;;;;;;;5065499;28;20456;-70
2021/12/02 09:23:06;;;;;;;34.07;29.60;;;;;;;;;;5064729;28;20460;-69
2021/12/02 09:25:34;;;;;;;17.57;16.33;;;;;;;;;;5063291;28;20740;-70
2021/12/02 09:28:02;;;;;;;22.03;20.23;;;;;;;;;;5065911;28;20484;-69
2021/12/02 09:30:37;;;;;;;26.17;23.67;;;;;;;;;;5062996;28;20513;-70
2021/12/02 09:33:04;;;;;;;17.87;16.80;;;;;;;;;;5066351;28;20868;-69
2021/12/02 09:35:35;;;;;;;22.47;20.57;;;;;;;;;;5071618;28;20455;-69
2021/12/02 09:38:10;;;;;;;18.03;16.70;;;;;;;;;;5060202;28;20457;-69
2021/12/02 09:40:44;;;;;;;18.60;16.77;;;;;;;;;;5062145;28;20563;-71
2021/12/02 09:43:19;;;;;;;10.30;9.20;;;;;;;;;;5064861;28;20461;-70
2021/12/02 09:45:59;;;;;;;7.83;4.97;;;;;;;;;;5073433;28;20459;-68
2021/12/02 09:48:29;;;;;;;4.50;4.10;;;;;;;;;;5079024;28;20916;-70
2021/12/02 09:51:04;;;;;;;4.93;4.43;;;;;;;;;;5077594;28;20455;-70
2021/12/02 09:53:37;;;;;;;6.07;5.60;;;;;;;;;;5063633;28;20488;-70
2021/12/02 09:56:14;;;;;;;6.00;4.20;;;;;;;;;;5060959;28;20468;-71
2021/12/02 09:58:45;;;;;;;5.13;3.00;;;;;;;;;;5064282;28;20464;-71
2021/12/02 10:01:15;;;;;;;9.63;6.93;;;;;;;;;;5075618;28;20549;-72
2021/12/02 10:03:46;;;;;;;19.90;11.50;;;;;;;;;;5073736;28;20472;-70
2021/12/02 10:06:21;;;;;;;4.47;2.33;;;;;;;;;;5066279;28;20457;-72
2021/12/02 10:09:05;;;;;;;1.63;1.30;;;;;;;;;;5064636;28;20547;-72
2021/12/02 10:11:41;;;;;;;5.30;4.80;;;;;;;;;;5061485;28;20821;-71
2021/12/02 10:14:25;;;;;;;4.40;2.90;;;;;;;;;;5063980;28;20472;-72
2021/12/02 10:17:09;;;;;;;4.83;4.43;;;;;;;;;;5064290;28;20522;-70
2021/12/02 10:19:38;;;;;;;6.10;4.77;;;;;;;;;;5058331;28;20456;-71
2021/12/02 10:22:11;;;;;;;4.07;3.70;;;;;;;;;;5058043;28;20463;-71
2021/12/02 10:24:43;;;;;;;8.60;7.80;;;;;;;;;;5058259;28;20456;-71
2021/12/02 10:27:27;;;;;;;5.40;3.87;;;;;;;;;;5057638;28;20485;-71
2021/12/02 10:29:56;;;;;;;11.93;11.03;;;;;;;;;;5048540;28;20571;-72
2021/12/02 10:32:33;;;;;;;4.47;3.40;;;;;;;;;;5059723;28;20476;-71
2021/12/02 10:35:13;;;;;;;40.00;33.90;;;;;;;;;;5058451;28;20465;-73
2021/12/02 10:38:04;;;;;;;6.87;4.97;;;;;;;;;;5059661;28;20722;-72
2021/12/02 10:40:47;;;;;;;4.50;3.93;;;;;;;;;;5059982;28;20544;-74
2021/12/02 10:43:14;;;;;;;8.90;6.53;;;;;;;;;;5070707;28;20913;-72
2021/12/02 10:45:43;;;;;;;6.50;5.90;;;;;;;;;;5078535;28;20524;-71
2021/12/02 10:48:13;;;;;;;5.13;4.30;;;;;;;;;;5064903;28;20497;-71
2021/12/02 10:50:42;;;;;;;5.33;4.63;;;;;;;;;;5058684;28;20520;-73
2021/12/02 10:53:09;;;;;;;4.80;4.40;;;;;;;;;;5059140;28;20464;-71
2021/12/02 10:55:38;;;;;;;3.67;3.40;;;;;;;;;;5058787;28;20454;-72
2021/12/02 10:58:05;;;;;;;8.07;7.17;;;;;;;;;;5057369;28;20449;-74
2021/12/02 11:00:35;;;;;;;6.83;6.13;;;;;;;;;;5057658;28;20453;-71
2021/12/02 11:03:30;;;;;;;7.53;6.60;;;;;;;;;;5057111;28;20533;-72
2021/12/02 11:06:08;;;;;;;6.83;6.43;;;;;;;;;;5039981;28;20456;-73
2021/12/02 11:08:37;;;;;;;10.40;9.70;;;;;;;;;;5077715;28;20480;-72
2021/12/02 11:11:30;;;;;;;8.73;8.23;;;;;;;;;;5056903;28;20465;-72
2021/12/02 11:14:01;;;;;;;16.13;14.93;;;;;;;;;;5058916;28;20453;-71
2021/12/02 11:16:38;;;;;;;13.43;12.50;;;;;;;;;;5057237;28;20457;-71
2021/12/02 11:19:21;;;;;;;12.03;10.90;;;;;;;;;;5062080;28;20448;-73
2021/12/02 11:22:04;;;;;;;13.53;12.53;;;;;;;;;;5073396;28;20477;-71
2021/12/02 11:24:33;;;;;;;12.57;11.30;;;;;;;;;;5076457;28;20480;-72
2021/12/02 11:27:16;;;;;;;9.30;8.50;;;;;;;;;;5066362;28;20485;-70
2021/12/02 11:32:53;;;;;;;17.50;16.40;;;;;;;;;;5060336;28;20405;-71
2021/12/02 11:35:47;;;;;;;13.93;13.13;;;;;;;;;;5057949;28;20495;-70
2021/12/02 11:38:24;;;;;;;12.37;11.50;;;;;;;;;;5051690;28;20465;-70
2021/12/02 11:40:54;;;;;;;5.77;5.37;;;;;;;;;;5057209;28;20453;-70
2021/12/02 11:43:39;;;;;;;11.03;5.53;;;;;;;;;;5076631;28;20464;-70
2021/12/02 11:46:08;;;;;;;13.00;12.20;;;;;;;;;;5076055;28;20456;-72
2021/12/02 11:48:38;;;;;;;17.77;16.40;;;;;;;;;;5073461;28;20481;-71
2021/12/02 11:51:07;;;;;;;13.50;12.20;;;;;;;;;;5071022;28;20464;-70
2021/12/02 11:53:37;;;;;;;8.10;7.50;;;;;;;;;;5060052;28;20468;-70
2021/12/02 11:56:05;;;;;;;20.70;19.40;;;;;;;;;;5056687;28;20509;-71
2021/12/02 11:58:33;;;;;;;13.10;8.17;;;;;;;;;;5056926;28;20457;-71
2021/12/02 12:01:09;;;;;;;10.63;10.03;;;;;;;;;;5054310;28;20445;-70
2021/12/02 12:03:43;;;;;;;10.13;9.53;;;;;;;;;;5064692;28;20456;-73
2021/12/02 12:06:15;;;;;;;12.23;11.53;;;;;;;;;;5076005;28;20475;-72
2021/12/02 12:08:45;;;;;;;13.33;12.60;;;;;;;;;;5058348;28;20545;-71
2021/12/02 12:11:23;;;;;;;8.40;7.90;;;;;;;;;;5055109;28;20444;-71
2021/12/02 12:13:58;;;;;;;14.00;13.20;;;;;;;;;;5055111;28;20461;-73
2021/12/02 12:16:45;;;;;;;9.70;8.97;;;;;;;;;;5054682;28;20460;-72
2021/12/02 12:19:17;;;;;;;17.30;16.30;;;;;;;;;;5063325;28;20865;-72
2021/12/02 12:21:45;;;;;;;20.30;18.97;;;;;;;;;;5055676;28;20450;-72
2021/12/02 12:24:15;;;;;;;19.53;18.20;;;;;;;;;;5071757;28;20464;-72
2021/12/02 12:26:46;;;;;;;21.73;20.10;;;;;;;;;;5055322;28;20460;-72
2021/12/02 12:29:33;;;;;;;17.73;16.63;;;;;;;;;;5056611;28;20456;-70
2021/12/02 12:35:14;;;;;;;26.50;24.10;;;;;;;;;;5041043;28;20877;-73
2021/12/02 12:37:51;;;;;;;17.27;16.17;;;;;;;;;;5055644;28;20742;-73
2021/12/02 12:40:25;;;;;;;37.93;34.10;;;;;;;;;;5063414;28;20451;-73
2021/12/02 12:42:55;;;;;;;39.97;35.60;;;;;;;;;;5073826;28;20448;-72
2021/12/02 12:45:30;;;;;;;15.73;14.27;;;;;;;;;;5075919;28;20491;-72
2021/12/02 12:48:02;;;;;;;36.20;32.50;;;;;;;;;;5070071;28;20548;-73
2021/12/02 12:50:34;;;;;;;27.43;25.07;;;;;;;;;;5063226;28;20827;-72
2021/12/02 12:53:24;;;;;;;21.33;19.83;;;;;;;;;;5065178;28;20471;-72
2021/12/02 12:56:24;;;;;;;21.30;19.43;;;;;;;;;;5054999;28;20864;-72
2021/12/02 13:19:13;;;;;;;15.57;14.40;;;;;;;;;;4880306;29;20454;-73
2021/12/02 13:21:45;;;;;;;19.07;17.60;;;;;;;;;;4991901;28;20569;-73
2021/12/02 13:24:35;;;;;;;14.07;13.27;;;;;;;;;;5025601;28;20952;-72
2021/12/02 13:27:06;;;;;;;18.50;17.00;;;;;;;;;;5055223;28;20903;-72
2021/12/02 13:29:34;;;;;;;15.20;14.20;;;;;;;;;;5056229;28;20548;-72
2021/12/02 13:32:03;;;;;;;11.50;8.10;;;;;;;;;;5056625;28;20438;-72
2021/12/02 13:34:48;;;;;;;14.70;13.70;;;;;;;;;;5061162;28;20899;-72
2021/12/02 13:37:21;;;;;;;23.80;8.27;;;;;;;;;;5075268;28;20461;-73
2021/12/02 13:39:49;;;;;;;3.50;3.20;;;;;;;;;;5068104;28;20496;-72
2021/12/02 13:42:20;;;;;;;6.93;6.33;;;;;;;;;;5064314;28;20445;-73
2021/12/02 13:44:50;;;;;;;11.50;10.60;;;;;;;;;;5060652;28;20456;-72
2021/12/02 13:47:41;;;;;;;11.10;10.50;;;;;;;;;;5062930;28;20482;-72
2021/12/02 13:50:22;;;;;;;39.00;34.87;;;;;;;;;;5065483;28;20448;-71
2021/12/02 13:53:09;;;;;;;27.83;25.33;;;;;;;;;;5068170;28;20456;-72
2021/12/02 13:55:47;;;;;;;8.20;7.50;;;;;;;;;;5061419;28;20449;-73
2021/12/02 13:58:27;;;;;;;30.57;28.03;;;;;;;;;;5059339;28;20480;-72
2021/12/02 14:00:59;;;;;;;17.77;16.13;;;;;;;;;;5061534;28;20444;-72
2021/12/02 14:03:29;;;;;;;28.27;25.57;;;;;;;;;;5054709;28;20540;-73
2021/12/02 14:08:43;;;;;;;17.20;16.13;;;;;;;;;;4995276;28;20665;-71
2021/12/02 14:11:16;;;;;;;22.80;21.37;;;;;;;;;;5056429;28;20521;-73
2021/12/02 14:13:47;;;;;;;31.97;29.03;;;;;;;;;;5061377;28;20465;-72
2021/12/02 14:16:53;;;;;;;21.80;20.37;;;;;;;;;;5064473;28;20459;-72
2021/12/02 14:19:42;;;;;;;23.27;21.73;;;;;;;;;;5064736;28;20848;-73
2021/12/02 14:22:26;;;;;;;27.77;25.20;;;;;;;;;;5073025;28;20449;-72
2021/12/02 14:25:13;;;;;;;29.97;27.23;;;;;;;;;;5065343;28;21032;-73
2021/12/02 14:27:40;;;;;;;32.97;29.17;;;;;;;;;;5077645;28;20480;-72
2021/12/02 14:30:13;;;;;;;24.80;23.00;;;;;;;;;;5071356;28;20464;-71
2021/12/02 14:32:42;;;;;;;33.73;30.40;;;;;;;;;;5067461;28;20707;-71
2021/12/02 14:35:12;;;;;;;11.93;11.33;;;;;;;;;;5064691;28;20464;-71
2021/12/02 14:37:46;;;;;;;34.33;30.73;;;;;;;;;;5058681;28;20454;-71
2021/12/02 14:40:47;;;;;;;26.57;24.47;;;;;;;;;;5061518;28;20464;-71
2021/12/02 14:43:25;;;;;;;30.53;27.80;;;;;;;;;;5062300;28;20457;-73
2021/12/02 14:46:14;;;;;;;24.33;22.50;;;;;;;;;;5065609;28;20873;-71
2021/12/02 14:48:47;;;;;;;26.37;24.43;;;;;;;;;;5063880;28;20481;-71
2021/12/02 14:51:16;;;;;;;23.73;21.83;;;;;;;;;;5077325;28;20584;-73
2021/12/02 14:53:47;;;;;;;21.90;20.30;;;;;;;;;;5075602;28;20464;-71
2021/12/02 14:56:25;;;;;;;35.10;31.53;;;;;;;;;;5067838;28;20473;-72
2021/12/02 14:59:09;;;;;;;29.30;26.50;;;;;;;;;;5065067;28;20449;-71
2021/12/02 15:01:58;;;;;;;28.37;25.67;;;;;;;;;;5075606;28;20541;-71
2021/12/02 15:04:50;;;;;;;27.63;25.40;;;;;;;;;;5066467;28;20980;-72
2021/12/02 15:07:20;;;;;;;20.73;18.93;;;;;;;;;;5072771;28;20508;-72
2021/12/02 15:10:17;;;;;;;28.57;25.93;;;;;;;;;;5056304;28;20453;-73
2021/12/02 15:12:51;;;;;;;23.53;21.23;;;;;;;;;;5056901;28;20544;-73
2021/12/02 15:15:21;;;;;;;29.17;26.63;;;;;;;;;;5076411;28;20522;-72
2021/12/02 15:18:01;;;;;;;29.80;27.10;;;;;;;;;;5074199;28;20476;-72
2021/12/02 15:20:30;;;;;;;20.83;19.17;;;;;;;;;;5069963;28;20485;-72
2021/12/02 15:23:02;;;;;;;31.57;28.60;;;;;;;;;;5063352;28;20456;-72
2021/12/02 15:25:32;;;;;;;45.53;36.53;;;;;;;;;;5076150;28;20744;-71
2021/12/02 15:28:13;;;;;;;28.70;25.63;;;;;;;;;;5071851;28;21245;-71
2021/12/02 15:30:47;;;;;;;40.23;32.93;;;;;;;;;;5060634;28;20467;-71
2021/12/02 15:33:20;;;;;;;31.93;28.87;;;;;;;;;;5075757;28;20867;-72